sensor_id;sensor_type;location;lat;lon;timestamp;pressure;altitude;pressure_sealevel;temperature;humidity
62942;BME280;49042;47.318;19.874;2022-09-28T00:00:15;99056.91;;;9.71;100.00
62942;BME280;49042;47.318;19.874;2022-09-28T00:03:17;99046.41;;;9.67;100.00
62942;BME280;49042;47.318;19.874;2022-09-28T00:06:21;99047.28;;;9.69;100.00
62942;BME280;49042;47.318;19.874;2022-09-28T00:09:24;99040.31;;;9.64;100.00
62942;BME280;49042;47.318;19.874;2022-09-28T00:12:27;99039.50;;;9.72;100.00
62942;BME280;49042;47.318;19.874;2022-09-28T00:15:28;99041.16;;;9.63;100.00
62942;BME280;49042;47.318;19.874;2022-09-28T00:18:31;99036.75;;;9.56;100.00
62942;BME280;49042;47.318;19.874;2022-09-28T00:21:36;99038.50;;;9.57;100.00
62942;BME280;49042;47.318;19.874;2022-09-28T00:24:38;99042.78;;;9.55;100.00
62942;BME280;49042;47.318;19.874;2022-09-28T00:27:40;99045.53;;;9.64;100.00
62942;BME280;49042;47.318;19.874;2022-09-28T00:30:41;99037.66;;;9.60;100.00
62942;BME280;49042;47.318;19.874;2022-09-28T00:33:43;99032.44;;;9.61;100.00
62942;BME280;49042;47.318;19.874;2022-09-28T00:36:45;99036.88;;;9.67;100.00
62942;BME280;49042;47.318;19.874;2022-09-28T00:39:48;99036.81;;;9.61;100.00
62942;BME280;49042;47.318;19.874;2022-09-28T00:42:50;99038.56;;;9.65;100.00
62942;BME280;49042;47.318;19.874;2022-09-28T00:45:58;99023.84;;;9.67;99.70
62942;BME280;49042;47.318;19.874;2022-09-28T00:49:04;99031.53;;;9.56;100.00
62942;BME280;49042;47.318;19.874;2022-09-28T00:52:20;99029.78;;;9.55;99.53
62942;BME280;49042;47.318;19.874;2022-09-28T00:55:43;99031.50;;;9.53;99.91
62942;BME280;49042;47.318;19.874;2022-09-28T00:58:51;99035.81;;;9.52;100.00
62942;BME280;49042;47.318;19.874;2022-09-28T01:01:54;99031.38;;;9.42;100.00
62942;BME280;49042;47.318;19.874;2022-09-28T01:04:56;99029.69;;;9.47;99.93
62942;BME280;49042;47.318;19.874;2022-09-28T01:08:01;99024.44;;;9.42;99.54
62942;BME280;49042;47.318;19.874;2022-09-28T01:11:03;99030.56;;;9.48;98.89
62942;BME280;49042;47.318;19.874;2022-09-28T01:14:09;99030.63;;;9.54;98.22
62942;BME280;49042;47.318;19.874;2022-09-28T01:17:19;99033.19;;;9.49;98.98
62942;BME280;49042;47.318;19.874;2022-09-28T01:27:11;99040.00;;;9.41;99.46
62942;BME280;49042;47.318;19.874;2022-09-28T01:30:16;99052.19;;;9.43;98.28
62942;BME280;49042;47.318;19.874;2022-09-28T01:33:23;99053.91;;;9.41;98.77
62942;BME280;49042;47.318;19.874;2022-09-28T01:36:32;99047.78;;;9.36;99.11
62942;BME280;49042;47.318;19.874;2022-09-28T01:39:40;99049.59;;;9.42;98.21
62942;BME280;49042;47.318;19.874;2022-09-28T01:42:49;99063.41;;;9.36;97.97
62942;BME280;49042;47.318;19.874;2022-09-28T01:45:59;99073.75;;;9.35;97.58
62942;BME280;49042;47.318;19.874;2022-09-28T01:49:07;99077.25;;;9.37;96.79
62942;BME280;49042;47.318;19.874;2022-09-28T01:52:32;99084.25;;;9.39;96.59
62942;BME280;49042;47.318;19.874;2022-09-28T01:55:41;99085.94;;;9.37;96.32
62942;BME280;49042;47.318;19.874;2022-09-28T01:59:02;99091.16;;;9.37;96.05
62942;BME280;49042;47.318;19.874;2022-09-28T02:02:19;99085.94;;;9.36;95.65
62942;BME280;49042;47.318;19.874;2022-09-28T02:05:36;99097.25;;;9.41;95.40
62942;BME280;49042;47.318;19.874;2022-09-28T02:08:45;99095.63;;;9.48;94.50
62942;BME280;49042;47.318;19.874;2022-09-28T02:11:55;99098.22;;;9.46;94.46
62942;BME280;49042;47.318;19.874;2022-09-28T02:15:16;99105.06;;;9.39;94.84
62942;BME280;49042;47.318;19.874;2022-09-28T02:18:19;99105.78;;;9.30;95.84
62942;BME280;49042;47.318;19.874;2022-09-28T02:21:30;99108.34;;;9.27;96.21
62942;BME280;49042;47.318;19.874;2022-09-28T02:24:40;99116.06;;;9.21;96.38
62942;BME280;49042;47.318;19.874;2022-09-28T02:28:04;99106.56;;;9.21;97.07
62942;BME280;49042;47.318;19.874;2022-09-28T02:31:07;99101.22;;;9.15;97.50
62942;BME280;49042;47.318;19.874;2022-09-28T02:34:15;99104.63;;;9.08;98.03
62942;BME280;49042;47.318;19.874;2022-09-28T02:37:16;99104.63;;;9.08;97.60
62942;BME280;49042;47.318;19.874;2022-09-28T02:40:21;99107.22;;;9.08;97.62
62942;BME280;49042;47.318;19.874;2022-09-28T02:47:04;99111.53;;;9.09;96.53
62942;BME280;49042;47.318;19.874;2022-09-28T03:00:04;99114.75;;;8.92;96.52
62942;BME280;49042;47.318;19.874;2022-09-28T03:03:17;99126.84;;;8.88;96.48
62942;BME280;49042;47.318;19.874;2022-09-28T03:09:47;99135.41;;;8.83;96.13
62942;BME280;49042;47.318;19.874;2022-09-28T03:12:52;99132.78;;;8.81;96.68
62942;BME280;49042;47.318;19.874;2022-09-28T03:16:09;99126.75;;;8.84;96.35
62942;BME280;49042;47.318;19.874;2022-09-28T03:19:12;99129.25;;;8.77;97.02
62942;BME280;49042;47.318;19.874;2022-09-28T03:22:14;99131.91;;;8.79;96.48
62942;BME280;49042;47.318;19.874;2022-09-28T03:25:16;99139.66;;;8.76;97.22
62942;BME280;49042;47.318;19.874;2022-09-28T03:28:18;99138.78;;;8.77;96.25
62942;BME280;49042;47.318;19.874;2022-09-28T03:31:22;99144.09;;;8.85;95.49
62942;BME280;49042;47.318;19.874;2022-09-28T03:34:24;99139.03;;;8.93;94.91
62942;BME280;49042;47.318;19.874;2022-09-28T03:37:27;99143.56;;;9.03;94.04
62942;BME280;49042;47.318;19.874;2022-09-28T03:40:29;99141.19;;;9.19;93.73
62942;BME280;49042;47.318;19.874;2022-09-28T03:43:35;99138.69;;;9.25;92.76
62942;BME280;49042;47.318;19.874;2022-09-28T03:46:37;99133.50;;;9.25;92.36
62942;BME280;49042;47.318;19.874;2022-09-28T03:49:40;99136.94;;;9.24;92.52
62942;BME280;49042;47.318;19.874;2022-09-28T03:52:45;99131.81;;;9.30;94.31
62942;BME280;49042;47.318;19.874;2022-09-28T03:55:48;99135.38;;;9.36;93.71
62942;BME280;49042;47.318;19.874;2022-09-28T03:58:51;99145.72;;;9.31;93.51
62942;BME280;49042;47.318;19.874;2022-09-28T04:01:53;99150.81;;;9.25;93.92
62942;BME280;49042;47.318;19.874;2022-09-28T04:04:55;99154.09;;;9.13;92.64
62942;BME280;49042;47.318;19.874;2022-09-28T04:07:57;99159.41;;;9.20;92.24
62942;BME280;49042;47.318;19.874;2022-09-28T04:11:00;99167.00;;;9.06;92.38
62942;BME280;49042;47.318;19.874;2022-09-28T04:14:03;99160.81;;;8.99;92.65
62942;BME280;49042;47.318;19.874;2022-09-28T04:17:05;99166.97;;;9.03;92.78
62942;BME280;49042;47.318;19.874;2022-09-28T04:20:07;99162.69;;;9.08;92.22
62942;BME280;49042;47.318;19.874;2022-09-28T04:23:09;99163.63;;;9.12;92.41
62942;BME280;49042;47.318;19.874;2022-09-28T04:26:19;99153.28;;;9.17;91.94
62942;BME280;49042;47.318;19.874;2022-09-28T04:29:21;99148.94;;;9.14;92.06
62942;BME280;49042;47.318;19.874;2022-09-28T04:32:23;99146.41;;;9.20;92.06
62942;BME280;49042;47.318;19.874;2022-09-28T04:35:25;99138.72;;;9.28;92.04
62942;BME280;49042;47.318;19.874;2022-09-28T04:38:27;99144.81;;;9.29;92.50
62942;BME280;49042;47.318;19.874;2022-09-28T04:41:48;99141.34;;;9.28;92.91
62942;BME280;49042;47.318;19.874;2022-09-28T04:44:52;99143.00;;;9.25;93.29
62942;BME280;49042;47.318;19.874;2022-09-28T04:47:54;99146.44;;;9.22;93.66
62942;BME280;49042;47.318;19.874;2022-09-28T04:50:59;99152.72;;;9.35;93.71
62942;BME280;49042;47.318;19.874;2022-09-28T04:54:01;99143.59;;;9.64;92.16
62942;BME280;49042;47.318;19.874;2022-09-28T04:57:04;99145.34;;;9.68;91.98
62942;BME280;49042;47.318;19.874;2022-09-28T05:00:07;99149.72;;;9.68;91.17
62942;BME280;49042;47.318;19.874;2022-09-28T05:03:10;99159.97;;;9.58;91.23
62942;BME280;49042;47.318;19.874;2022-09-28T05:06:13;99161.56;;;9.47;92.28
62942;BME280;49042;47.318;19.874;2022-09-28T05:09:16;99164.00;;;9.36;92.86
62942;BME280;49042;47.318;19.874;2022-09-28T05:12:17;99161.34;;;9.34;93.18
62942;BME280;49042;47.318;19.874;2022-09-28T05:15:19;99167.31;;;9.25;94.68
62942;BME280;49042;47.318;19.874;2022-09-28T05:18:21;99168.28;;;9.32;94.79
62942;BME280;49042;47.318;19.874;2022-09-28T05:21:23;99171.06;;;9.43;93.51
62942;BME280;49042;47.318;19.874;2022-09-28T05:24:26;99169.09;;;9.29;94.04
62942;BME280;49042;47.318;19.874;2022-09-28T05:27:28;99169.28;;;9.43;94.02
62942;BME280;49042;47.318;19.874;2022-09-28T05:30:34;99166.56;;;9.34;92.18
62942;BME280;49042;47.318;19.874;2022-09-28T05:33:36;99171.75;;;9.32;92.37
62942;BME280;49042;47.318;19.874;2022-09-28T05:36:38;99181.34;;;9.35;91.47
62942;BME280;49042;47.318;19.874;2022-09-28T05:39:41;99180.03;;;9.66;90.73
62942;BME280;49042;47.318;19.874;2022-09-28T05:42:42;99183.47;;;9.63;89.68
62942;BME280;49042;47.318;19.874;2022-09-28T05:45:44;99190.78;;;9.89;88.89
62942;BME280;49042;47.318;19.874;2022-09-28T05:48:48;99184.50;;;9.76;87.37
62942;BME280;49042;47.318;19.874;2022-09-28T05:51:51;99194.94;;;9.74;87.43
62942;BME280;49042;47.318;19.874;2022-09-28T05:54:53;99200.03;;;9.68;86.30
62942;BME280;49042;47.318;19.874;2022-09-28T05:57:59;99208.16;;;9.89;85.15
62942;BME280;49042;47.318;19.874;2022-09-28T06:01:01;99209.97;;;9.96;84.25
62942;BME280;49042;47.318;19.874;2022-09-28T06:04:03;99204.06;;;10.11;83.23
62942;BME280;49042;47.318;19.874;2022-09-28T06:07:05;99204.25;;;10.25;83.37
62942;BME280;49042;47.318;19.874;2022-09-28T06:10:07;99199.97;;;10.32;82.70
62942;BME280;49042;47.318;19.874;2022-09-28T06:13:09;99200.09;;;10.40;82.90
62942;BME280;49042;47.318;19.874;2022-09-28T06:16:16;99198.72;;;10.70;82.02
62942;BME280;49042;47.318;19.874;2022-09-28T06:19:19;99201.50;;;10.92;81.63
62942;BME280;49042;47.318;19.874;2022-09-28T06:22:21;99199.91;;;11.07;81.88
62942;BME280;49042;47.318;19.874;2022-09-28T06:25:23;99199.03;;;11.07;82.91
62942;BME280;49042;47.318;19.874;2022-09-28T06:28:31;99198.22;;;11.14;82.63
62942;BME280;49042;47.318;19.874;2022-09-28T06:31:33;99192.13;;;11.09;84.80
62942;BME280;49042;47.318;19.874;2022-09-28T06:34:35;99195.84;;;11.45;83.97
62942;BME280;49042;47.318;19.874;2022-09-28T06:37:37;99200.44;;;11.80;81.61
62942;BME280;49042;47.318;19.874;2022-09-28T06:40:38;99198.75;;;11.91;80.36
62942;BME280;49042;47.318;19.874;2022-09-28T06:43:47;99202.22;;;11.88;78.85
62942;BME280;49042;47.318;19.874;2022-09-28T06:46:49;99186.78;;;12.36;76.49
62942;BME280;49042;47.318;19.874;2022-09-28T06:49:52;99187.66;;;12.44;75.27
62942;BME280;49042;47.318;19.874;2022-09-28T06:52:57;99204.88;;;11.95;77.11
62942;BME280;49042;47.318;19.874;2022-09-28T06:55:59;99204.81;;;11.82;76.37
62942;BME280;49042;47.318;19.874;2022-09-28T06:59:04;99204.91;;;12.01;76.67
62942;BME280;49042;47.318;19.874;2022-09-28T07:02:11;99188.53;;;12.37;75.27
62942;BME280;49042;47.318;19.874;2022-09-28T07:05:16;99198.13;;;12.44;72.83
62942;BME280;49042;47.318;19.874;2022-09-28T07:08:21;99189.50;;;12.73;69.60
62942;BME280;49042;47.318;19.874;2022-09-28T07:11:27;99193.87;;;13.04;70.06
62942;BME280;49042;47.318;19.874;2022-09-28T07:14:32;99191.28;;;13.17;69.53
62942;BME280;49042;47.318;19.874;2022-09-28T07:17:48;99203.44;;;13.89;67.50
62942;BME280;49042;47.318;19.874;2022-09-28T07:21:02;99207.75;;;14.10;64.58
62942;BME280;49042;47.318;19.874;2022-09-28T07:24:04;99205.78;;;14.56;64.31
62942;BME280;49042;47.318;19.874;2022-09-28T07:27:07;99223.53;;;13.98;65.39
62942;BME280;49042;47.318;19.874;2022-09-28T07:30:10;99215.69;;;13.84;67.63
62942;BME280;49042;47.318;19.874;2022-09-28T07:33:13;99224.47;;;13.49;69.13
62942;BME280;49042;47.318;19.874;2022-09-28T07:36:16;99225.34;;;13.61;66.84
62942;BME280;49042;47.318;19.874;2022-09-28T07:39:18;99228.81;;;13.44;68.00
62942;BME280;49042;47.318;19.874;2022-09-28T07:42:20;99233.19;;;13.64;66.50
62942;BME280;49042;47.318;19.874;2022-09-28T07:45:22;99240.59;;;14.95;62.13
62942;BME280;49042;47.318;19.874;2022-09-28T07:48:25;99237.06;;;16.78;54.56
62942;BME280;49042;47.318;19.874;2022-09-28T07:51:26;99238.50;;;18.50;49.25
62942;BME280;49042;47.318;19.874;2022-09-28T07:54:28;99235.72;;;20.04;45.44
62942;BME280;49042;47.318;19.874;2022-09-28T07:57:31;99240.78;;;21.06;41.78
62942;BME280;49042;47.318;19.874;2022-09-28T08:00:36;99244.41;;;21.83;39.03
62942;BME280;49042;47.318;19.874;2022-09-28T08:03:38;99235.81;;;22.75;35.92
62942;BME280;49042;47.318;19.874;2022-09-28T08:06:40;99240.69;;;23.08;34.63
62942;BME280;49042;47.318;19.874;2022-09-28T08:09:44;99238.59;;;24.62;36.17
62942;BME280;49042;47.318;19.874;2022-09-28T08:12:46;99238.06;;;24.92;32.35
62942;BME280;49042;47.318;19.874;2022-09-28T08:15:48;99238.00;;;25.67;31.13
62942;BME280;49042;47.318;19.874;2022-09-28T08:18:52;99232.41;;;26.07;30.21
62942;BME280;49042;47.318;19.874;2022-09-28T08:21:55;99229.53;;;26.93;29.43
62942;BME280;49042;47.318;19.874;2022-09-28T08:24:57;99224.13;;;25.60;30.03
62942;BME280;49042;47.318;19.874;2022-09-28T08:28:00;99230.03;;;27.16;27.98
62942;BME280;49042;47.318;19.874;2022-09-28T08:31:02;99226.22;;;27.37;28.29
62942;BME280;49042;47.318;19.874;2022-09-28T08:34:04;99225.72;;;27.76;26.50
62942;BME280;49042;47.318;19.874;2022-09-28T08:37:07;99221.44;;;25.60;29.13
62942;BME280;49042;47.318;19.874;2022-09-28T08:40:18;99218.38;;;25.68;28.24
62942;BME280;49042;47.318;19.874;2022-09-28T08:47:05;99208.44;;;27.96;26.10
62942;BME280;49042;47.318;19.874;2022-09-28T08:50:15;99209.88;;;28.17;27.06
62942;BME280;49042;47.318;19.874;2022-09-28T08:53:32;99200.00;;;29.02;24.35
62942;BME280;49042;47.318;19.874;2022-09-28T08:56:43;99206.50;;;30.95;22.32
62942;BME280;49042;47.318;19.874;2022-09-28T09:02:49;99210.91;;;29.14;24.90
62942;BME280;49042;47.318;19.874;2022-09-28T09:12:38;99207.19;;;30.48;22.72
62942;BME280;49042;47.318;19.874;2022-09-28T09:19:15;99211.25;;;30.53;22.87
62942;BME280;49042;47.318;19.874;2022-09-28T09:22:38;99211.56;;;31.36;21.52
62942;BME280;49042;47.318;19.874;2022-09-28T09:25:48;99217.53;;;32.56;19.98
62942;BME280;49042;47.318;19.874;2022-09-28T09:45:05;99217.03;;;30.98;22.22
62942;BME280;49042;47.318;19.874;2022-09-28T09:48:25;99221.38;;;32.42;20.05
62942;BME280;49042;47.318;19.874;2022-09-28T09:51:48;99225.91;;;32.42;20.12
62942;BME280;49042;47.318;19.874;2022-09-28T09:54:54;99220.22;;;29.36;23.58
62942;BME280;49042;47.318;19.874;2022-09-28T10:01:22;99225.78;;;24.51;32.25
62942;BME280;49042;47.318;19.874;2022-09-28T10:04:40;99236.13;;;22.65;34.10
62942;BME280;49042;47.318;19.874;2022-09-28T10:07:57;99230.56;;;21.21;37.68
62942;BME280;49042;47.318;19.874;2022-09-28T10:11:08;99227.72;;;20.69;39.29
62942;BME280;49042;47.318;19.874;2022-09-28T10:14:14;99226.25;;;19.96;40.15
62942;BME280;49042;47.318;19.874;2022-09-28T10:17:19;99217.84;;;19.46;42.97
62942;BME280;49042;47.318;19.874;2022-09-28T10:20:32;99218.97;;;18.98;41.69
62942;BME280;49042;47.318;19.874;2022-09-28T10:23:35;99210.13;;;18.60;44.12
62942;BME280;49042;47.318;19.874;2022-09-28T10:26:40;99211.62;;;18.72;43.18
62942;BME280;49042;47.318;19.874;2022-09-28T10:29:55;99209.59;;;18.44;44.83
62942;BME280;49042;47.318;19.874;2022-09-28T10:32:58;99220.34;;;17.88;46.30
62942;BME280;49042;47.318;19.874;2022-09-28T10:36:05;99223.87;;;17.87;46.24
62942;BME280;49042;47.318;19.874;2022-09-28T10:39:23;99216.69;;;18.42;46.25
62942;BME280;49042;47.318;19.874;2022-09-28T10:42:31;99227.22;;;18.44;44.86
62942;BME280;49042;47.318;19.874;2022-09-28T10:45:34;99225.13;;;18.14;46.82
62942;BME280;49042;47.318;19.874;2022-09-28T10:51:53;99219.75;;;17.72;45.28
62942;BME280;49042;47.318;19.874;2022-09-28T10:54:57;99220.03;;;17.57;46.83
62942;BME280;49042;47.318;19.874;2022-09-28T10:57:59;99209.34;;;17.64;44.61
62942;BME280;49042;47.318;19.874;2022-09-28T11:04:18;99199.91;;;18.00;47.92
62942;BME280;49042;47.318;19.874;2022-09-28T11:07:33;99198.13;;;18.01;47.40
62942;BME280;49042;47.318;19.874;2022-09-28T11:10:45;99202.13;;;18.64;47.42
62942;BME280;49042;47.318;19.874;2022-09-28T11:13:49;99196.41;;;18.44;49.09
62942;BME280;49042;47.318;19.874;2022-09-28T11:23:29;99203.06;;;18.18;43.71
62942;BME280;49042;47.318;19.874;2022-09-28T11:26:37;99208.75;;;17.97;46.25
62942;BME280;49042;47.318;19.874;2022-09-28T11:29:59;99203.88;;;18.20;46.02
62942;BME280;49042;47.318;19.874;2022-09-28T11:33:04;99205.59;;;18.24;45.87
62942;BME280;49042;47.318;19.874;2022-09-28T11:39:26;99201.25;;;18.63;45.30
62942;BME280;49042;47.318;19.874;2022-09-28T11:49:10;99203.91;;;18.63;45.24
62942;BME280;49042;47.318;19.874;2022-09-28T11:52:26;99202.66;;;18.40;46.70
62942;BME280;49042;47.318;19.874;2022-09-28T11:55:42;99201.41;;;18.57;46.48
62942;BME280;49042;47.318;19.874;2022-09-28T11:58:52;99202.09;;;18.24;46.64
62942;BME280;49042;47.318;19.874;2022-09-28T12:02:10;99190.84;;;18.14;46.41
62942;BME280;49042;47.318;19.874;2022-09-28T12:05:26;99192.19;;;17.91;48.04
62942;BME280;49042;47.318;19.874;2022-09-28T12:08:32;99189.28;;;18.03;45.19
62942;BME280;49042;47.318;19.874;2022-09-28T12:11:38;99187.28;;;17.70;47.81
62942;BME280;49042;47.318;19.874;2022-09-28T12:14:45;99179.22;;;17.78;48.76
62942;BME280;49042;47.318;19.874;2022-09-28T12:18:01;99183.84;;;17.66;48.49
62942;BME280;49042;47.318;19.874;2022-09-28T12:21:27;99177.44;;;17.80;48.20
62942;BME280;49042;47.318;19.874;2022-09-28T12:24:46;99178.00;;;17.96;48.70
62942;BME280;49042;47.318;19.874;2022-09-28T12:27:55;99181.41;;;18.02;49.67
62942;BME280;49042;47.318;19.874;2022-09-28T12:31:07;99169.09;;;18.45;48.29
62942;BME280;49042;47.318;19.874;2022-09-28T12:34:11;99175.59;;;18.70;46.38
62942;BME280;49042;47.318;19.874;2022-09-28T12:37:45;99169.87;;;18.89;45.52
62942;BME280;49042;47.318;19.874;2022-09-28T12:48:13;99155.84;;;18.87;43.41
62942;BME280;49042;47.318;19.874;2022-09-28T12:58:13;99140.84;;;18.50;46.23
62942;BME280;49042;47.318;19.874;2022-09-28T13:01:56;99130.75;;;18.68;44.32
62942;BME280;49042;47.318;19.874;2022-09-28T13:14:50;99119.06;;;18.40;45.59
62942;BME280;49042;47.318;19.874;2022-09-28T13:18:16;99123.41;;;18.41;45.40
62942;BME280;49042;47.318;19.874;2022-09-28T13:21:36;99117.34;;;21.74;38.44
62942;BME280;49042;47.318;19.874;2022-09-28T13:24:44;99105.47;;;25.66;30.58
62942;BME280;49042;47.318;19.874;2022-09-28T13:27:55;99107.13;;;27.59;27.50
62942;BME280;49042;47.318;19.874;2022-09-28T13:31:00;99112.00;;;26.27;28.68
62942;BME280;49042;47.318;19.874;2022-09-28T13:34:03;99114.28;;;24.61;31.67
62942;BME280;49042;47.318;19.874;2022-09-28T13:37:19;99114.94;;;23.06;34.20
62942;BME280;49042;47.318;19.874;2022-09-28T13:44:13;99089.97;;;24.11;32.93
62942;BME280;49042;47.318;19.874;2022-09-28T13:48:16;99094.56;;;22.84;34.14
62942;BME280;49042;47.318;19.874;2022-09-28T13:51:25;99100.31;;;22.28;36.42
62942;BME280;49042;47.318;19.874;2022-09-28T13:58:40;99093.63;;;26.69;28.63
62942;BME280;49042;47.318;19.874;2022-09-28T14:02:03;99086.19;;;25.09;30.87
62942;BME280;49042;47.318;19.874;2022-09-28T14:08:30;99078.22;;;19.90;42.09
62942;BME280;49042;47.318;19.874;2022-09-28T14:31:14;99095.03;;;18.12;45.24
62942;BME280;49042;47.318;19.874;2022-09-28T14:34:53;99100.91;;;17.83;45.78
62942;BME280;49042;47.318;19.874;2022-09-28T14:37:48;99110.38;;;17.92;46.21
62942;BME280;49042;47.318;19.874;2022-09-28T14:44:18;99106.44;;;18.12;45.40
62942;BME280;49042;47.318;19.874;2022-09-28T14:47:37;99097.03;;;18.00;47.75
62942;BME280;49042;47.318;19.874;2022-09-28T14:50:41;99102.00;;;18.14;47.14
62942;BME280;49042;47.318;19.874;2022-09-28T14:53:44;99103.47;;;17.86;47.19
62942;BME280;49042;47.318;19.874;2022-09-28T14:59:54;99097.75;;;17.64;47.21
62942;BME280;49042;47.318;19.874;2022-09-28T15:03:02;99089.31;;;17.46;47.27
62942;BME280;49042;47.318;19.874;2022-09-28T15:06:15;99087.81;;;17.32;47.42
62942;BME280;49042;47.318;19.874;2022-09-28T15:09:32;99081.84;;;17.22;47.76
62942;BME280;49042;47.318;19.874;2022-09-28T15:12:34;99078.34;;;17.22;48.42
62942;BME280;49042;47.318;19.874;2022-09-28T15:15:38;99073.22;;;17.12;49.01
62942;BME280;49042;47.318;19.874;2022-09-28T15:22:13;99086.56;;;17.03;49.95
62942;BME280;49042;47.318;19.874;2022-09-28T15:25:19;99093.13;;;16.77;50.16
62942;BME280;49042;47.318;19.874;2022-09-28T15:28:22;99078.94;;;16.86;49.91
62942;BME280;49042;47.318;19.874;2022-09-28T15:31:25;99091.59;;;16.62;49.79
62942;BME280;49042;47.318;19.874;2022-09-28T15:34:33;99095.22;;;16.56;50.03
62942;BME280;49042;47.318;19.874;2022-09-28T15:37:55;99098.59;;;16.64;48.84
62942;BME280;49042;47.318;19.874;2022-09-28T15:40:57;99092.47;;;16.62;49.91
62942;BME280;49042;47.318;19.874;2022-09-28T15:47:24;99098.50;;;16.70;50.03
62942;BME280;49042;47.318;19.874;2022-09-28T15:50:28;99105.59;;;16.65;50.30
62942;BME280;49042;47.318;19.874;2022-09-28T15:53:30;99098.59;;;16.64;50.46
62942;BME280;49042;47.318;19.874;2022-09-28T15:56:52;99090.94;;;16.48;50.94
62942;BME280;49042;47.318;19.874;2022-09-28T15:59:55;99075.31;;;16.37;51.37
62942;BME280;49042;47.318;19.874;2022-09-28T16:06:09;99077.34;;;16.18;52.32
62942;BME280;49042;47.318;19.874;2022-09-28T16:09:32;99069.38;;;16.24;52.99
62942;BME280;49042;47.318;19.874;2022-09-28T16:12:52;99079.06;;;16.21;54.69
62942;BME280;49042;47.318;19.874;2022-09-28T16:16:00;99079.94;;;16.20;54.52
62942;BME280;49042;47.318;19.874;2022-09-28T16:19:02;99088.03;;;16.01;54.55
62942;BME280;49042;47.318;19.874;2022-09-28T16:22:06;99089.00;;;15.95;55.34
62942;BME280;49042;47.318;19.874;2022-09-28T16:25:22;99089.19;;;15.82;55.83
62942;BME280;49042;47.318;19.874;2022-09-28T16:32:11;99089.50;;;15.52;61.23
62942;BME280;49042;47.318;19.874;2022-09-28T16:35:27;99088.53;;;15.63;58.25
62942;BME280;49042;47.318;19.874;2022-09-28T16:38:29;99094.66;;;15.65;58.06
62942;BME280;49042;47.318;19.874;2022-09-28T16:41:31;99093.97;;;15.47;63.33
62942;BME280;49042;47.318;19.874;2022-09-28T16:44:33;99089.59;;;15.45;58.45
62942;BME280;49042;47.318;19.874;2022-09-28T16:47:37;99092.28;;;15.40;58.09
62942;BME280;49042;47.318;19.874;2022-09-28T16:50:40;99093.22;;;15.36;58.43
62942;BME280;49042;47.318;19.874;2022-09-28T16:53:42;99095.94;;;15.26;58.94
62942;BME280;49042;47.318;19.874;2022-09-28T16:57:04;99093.28;;;15.28;59.86
62942;BME280;49042;47.318;19.874;2022-09-28T17:00:13;99093.50;;;15.04;60.49
62942;BME280;49042;47.318;19.874;2022-09-28T17:03:17;99096.94;;;15.09;60.12
62942;BME280;49042;47.318;19.874;2022-09-28T17:06:21;99100.41;;;15.13;60.44
62942;BME280;49042;47.318;19.874;2022-09-28T17:09:25;99103.88;;;15.17;60.05
62942;BME280;49042;47.318;19.874;2022-09-28T17:12:26;99102.16;;;15.14;60.60
62942;BME280;49042;47.318;19.874;2022-09-28T17:15:29;99099.59;;;15.08;60.59
62942;BME280;49042;47.318;19.874;2022-09-28T17:18:31;99086.53;;;14.98;61.16
62942;BME280;49042;47.318;19.874;2022-09-28T17:21:33;99081.38;;;14.87;60.56
62942;BME280;49042;47.318;19.874;2022-09-28T17:24:35;99080.41;;;15.01;61.02
62942;BME280;49042;47.318;19.874;2022-09-28T17:27:42;99080.41;;;15.01;59.90
62942;BME280;49042;47.318;19.874;2022-09-28T17:30:46;99079.47;;;15.05;60.35
62942;BME280;49042;47.318;19.874;2022-09-28T17:33:48;99086.47;;;15.08;60.40
62942;BME280;49042;47.318;19.874;2022-09-28T17:36:52;99084.78;;;14.99;61.28
62942;BME280;49042;47.318;19.874;2022-09-28T17:39:54;99083.91;;;15.02;62.30
62942;BME280;49042;47.318;19.874;2022-09-28T17:42:56;99076.81;;;15.12;62.71
62942;BME280;49042;47.318;19.874;2022-09-28T17:45:59;99074.34;;;14.91;64.32
62942;BME280;49042;47.318;19.874;2022-09-28T17:49:03;99074.50;;;14.71;65.07
62942;BME280;49042;47.318;19.874;2022-09-28T17:52:05;99066.47;;;14.88;64.64
62942;BME280;49042;47.318;19.874;2022-09-28T17:55:07;99068.38;;;14.72;65.43
62942;BME280;49042;47.318;19.874;2022-09-28T17:58:17;99075.44;;;14.63;66.36
62942;BME280;49042;47.318;19.874;2022-09-28T18:01:19;99071.87;;;14.71;65.46
62942;BME280;49042;47.318;19.874;2022-09-28T18:04:21;99072.03;;;14.52;66.19
62942;BME280;49042;47.318;19.874;2022-09-28T18:07:43;99061.47;;;14.61;65.70
62942;BME280;49042;47.318;19.874;2022-09-28T18:10:49;99070.91;;;14.83;65.17
62942;BME280;49042;47.318;19.874;2022-09-28T18:13:50;99065.75;;;14.70;65.88
62942;BME280;49042;47.318;19.874;2022-09-28T18:16:56;99063.03;;;14.83;64.92
62942;BME280;49042;47.318;19.874;2022-09-28T18:19:57;99067.34;;;14.92;63.97
62942;BME280;49042;47.318;19.874;2022-09-28T18:22:59;99072.69;;;14.77;66.07
62942;BME280;49042;47.318;19.874;2022-09-28T18:26:01;99083.12;;;14.87;67.77
62942;BME280;49042;47.318;19.874;2022-09-28T18:29:07;99081.38;;;14.87;67.31
62942;BME280;49042;47.318;19.874;2022-09-28T18:32:08;99089.25;;;14.91;66.53
62942;BME280;49042;47.318;19.874;2022-09-28T18:35:10;99076.28;;;14.67;66.40
62942;BME280;49042;47.318;19.874;2022-09-28T18:38:12;99069.34;;;14.63;66.35
62942;BME280;49042;47.318;19.874;2022-09-28T18:41:14;99060.50;;;14.72;67.23
62942;BME280;49042;47.318;19.874;2022-09-28T18:44:16;99063.25;;;14.58;66.69
62942;BME280;49042;47.318;19.874;2022-09-28T18:47:18;99070.13;;;14.71;67.43
62942;BME280;49042;47.318;19.874;2022-09-28T18:50:20;99067.53;;;14.70;66.98
62942;BME280;49042;47.318;19.874;2022-09-28T18:53:22;99071.00;;;14.72;69.03
62942;BME280;49042;47.318;19.874;2022-09-28T18:56:24;99087.59;;;14.74;69.52